TimeMDT,TemperatureF,Dew PointF,Humidity,Sea Level PressureIn,VisibilityMPH,Wind Direction,Wind SpeedMPH,Gust SpeedMPH,PrecipitationIn,Events,Conditions,WindDirDegrees,DateUTC
12:52 AM,59.0,37.9,46,29.70,10.0,NW,13.8,-,N/A,,Partly Cloudy,310,2012-10-16 06:52:00
1:52 AM,51.8,35.6,54,29.77,10.0,NW,8.1,-,N/A,,Clear,320,2012-10-16 07:52:00
2:52 AM,46.9,35.1,63,29.71,10.0,NW,9.2,-,N/A,,Clear,320,2012-10-16 08:52:00
3:52 AM,50.0,35.6,58,29.74,10.0,NW,8.1,-,N/A,,Clear,310,2012-10-16 09:52:00
4:52 AM,45.0,34.0,65,29.69,10.0,West,4.6,-,N/A,,Clear,280,2012-10-16 10:52:00
5:52 AM,42.8,33.8,70,29.73,10.0,WNW,4.6,-,N/A,,Clear,290,2012-10-16 11:52:00
6:52 AM,45.0,35.1,68,29.70,10.0,Calm,Calm,-,N/A,,Clear,0,2012-10-16 12:52:00
7:52 AM,46.0,36.0,68,29.67,10.0,Calm,Calm,-,N/A,,Clear,0,2012-10-16 13:52:00
8:52 AM,53.1,37.0,55,29.63,10.0,Calm,Calm,-,N/A,,Clear,0,2012-10-16 14:52:00
9:52 AM,61.0,37.0,41,29.57,10.0,SSE,9.2,-,N/A,,Clear,160,2012-10-16 15:52:00
10:52 AM,68.0,37.9,33,29.51,10.0,South,15.0,-,N/A,,Clear,180,2012-10-16 16:52:00
11:52 AM,69.1,37.0,31,29.46,10.0,South,17.3,-,N/A,,Clear,180,2012-10-16 17:52:00
12:52 PM,69.1,36.0,30,29.40,10.0,South,18.4,-,N/A,,Clear,180,2012-10-16 18:52:00
1:52 PM,71.1,33.1,25,29.37,10.0,SSW,12.7,-,N/A,,Partly Cloudy,210,2012-10-16 19:52:00
2:52 PM,69.1,34.0,27,29.35,10.0,WNW,5.8,-,N/A,,Overcast,290,2012-10-16 20:52:00
3:52 PM,66.9,36.0,32,29.32,10.0,ESE,3.5,-,0.00,,Mostly Cloudy,110,2012-10-16 21:52:00
4:52 PM,66.0,37.9,36,29.33,10.0,North,12.7,-,0.00,,Overcast,360,2012-10-16 22:52:00
5:52 PM,62.1,39.9,44,29.34,10.0,NNW,3.5,-,0.00,,Overcast,340,2012-10-16 23:52:00
6:52 PM,55.0,48.9,80,29.38,10.0,NNW,23.0,-,0.00,Rain,Light Rain,340,2012-10-17 00:52:00
7:52 PM,53.1,46.0,77,29.44,9.0,NW,31.1,39.1,0.03,Rain,Light Rain,310,2012-10-17 01:52:00
8:52 PM,48.9,45.0,86,29.47,10.0,WNW,13.8,23.0,0.08,Rain,Light Rain,300,2012-10-17 02:52:00
9:52 PM,50.0,42.1,74,29.45,10.0,WNW,16.1,-,0.01,,Overcast,300,2012-10-17 03:52:00
10:52 PM,50.0,43.0,77,29.45,10.0,WNW,8.1,-,0.00,,Overcast,290,2012-10-17 04:52:00
11:52 PM,50.0,37.9,63,29.47,10.0,NW,21.9,27.6,N/A,,Clear,320,2012-10-17 05:52:00